Time;durP1;ratioP1;P1;durP2;ratioP2;P2;SDS_P1;SDS_P2;PMS_P1;PMS_P2;Temp;Humidity;BMP_temperature;BMP_pressure;BME280_temperature;BME280_humidity;BME280_pressure;Samples;Min_cycle;Max_cycle;Signal;HPM_P1;HPM_P2
2021/01/21 00:01:09;;;;;;;5.20;2.57;;;8.00;99.90;;;;;;5012192;28;20316;-48
2021/01/21 00:03:37;;;;;;;6.23;2.40;;;8.00;99.90;;;;;;5011658;28;20670;-48
2021/01/21 00:06:05;;;;;;;2.33;1.80;;;8.00;99.90;;;;;;5013456;28;20696;-48
2021/01/21 00:08:32;;;;;;;2.80;2.03;;;8.00;99.90;;;;;;5013212;28;20287;-48
2021/01/21 00:11:00;;;;;;;4.43;2.13;;;8.00;99.90;;;;;;5012372;28;20321;-48
2021/01/21 00:13:27;;;;;;;5.67;1.80;;;8.00;99.90;;;;;;5025553;28;20704;-48
2021/01/21 00:15:55;;;;;;;4.67;2.47;;;8.00;99.90;;;;;;5010689;28;20672;-48
2021/01/21 00:18:22;;;;;;;4.60;2.70;;;8.10;99.90;;;;;;5010973;28;20315;-49
2021/01/21 00:20:50;;;;;;;6.17;2.50;;;8.10;99.90;;;;;;5010515;28;20311;-48
2021/01/21 00:23:17;;;;;;;4.03;2.30;;;8.20;99.90;;;;;;5016423;28;20232;-48
2021/01/21 00:25:44;;;;;;;5.23;2.37;;;8.20;99.90;;;;;;5029941;28;20314;-49
2021/01/21 00:28:12;;;;;;;4.10;2.30;;;8.10;99.90;;;;;;5030413;28;20660;-48
2021/01/21 00:30:39;;;;;;;4.23;2.10;;;8.20;99.90;;;;;;5031113;28;20283;-48
2021/01/21 00:33:07;;;;;;;5.97;2.13;;;8.20;99.90;;;;;;5030732;28;20237;-48
2021/01/21 00:35:34;;;;;;;3.90;2.27;;;8.20;99.90;;;;;;5029721;28;20240;-48
2021/01/21 00:38:02;;;;;;;2.97;1.90;;;8.30;99.90;;;;;;5030495;28;20335;-48
2021/01/21 00:40:29;;;;;;;4.73;1.97;;;8.40;99.90;;;;;;5030630;28;20259;-48
2021/01/21 00:42:56;;;;;;;2.73;1.87;;;8.40;99.90;;;;;;5030565;28;20323;-48
2021/01/21 00:45:24;;;;;;;3.00;1.80;;;8.30;99.90;;;;;;4995527;28;20629;-48
2021/01/21 00:47:52;;;;;;;3.27;1.90;;;8.40;99.90;;;;;;4989515;28;20714;-48
2021/01/21 00:50:20;;;;;;;4.37;2.10;;;8.40;99.90;;;;;;4991008;28;20589;-48
2021/01/21 00:52:48;;;;;;;2.83;1.70;;;8.40;99.90;;;;;;4998970;28;20701;-49
2021/01/21 00:55:16;;;;;;;5.83;2.20;;;8.40;99.90;;;;;;5008427;28;20664;-48
2021/01/21 00:57:43;;;;;;;4.00;2.00;;;8.40;99.90;;;;;;5010131;28;20236;-48
2021/01/21 01:00:13;;;;;;;5.10;1.90;;;8.40;99.90;;;;;;5010245;28;20256;-48
2021/01/21 01:02:47;;;;;;;3.17;1.90;;;8.40;99.90;;;;;;5014135;28;20232;-48
2021/01/21 01:05:15;;;;;;;3.93;2.30;;;8.40;99.90;;;;;;5010325;28;20256;-48
2021/01/21 01:07:47;;;;;;;3.20;1.97;;;8.50;99.90;;;;;;5010518;28;20268;-48
2021/01/21 01:10:16;;;;;;;3.03;2.00;;;8.50;99.90;;;;;;5026016;28;20666;-48
2021/01/21 01:12:44;;;;;;;4.77;1.83;;;8.50;99.90;;;;;;5024845;28;20660;-48
2021/01/21 01:15:13;;;;;;;4.23;2.00;;;8.50;99.90;;;;;;5023316;28;20648;-48
2021/01/21 01:17:40;;;;;;;4.63;2.03;;;8.50;99.90;;;;;;5010239;28;20287;-48
2021/01/21 01:20:09;;;;;;;4.77;2.10;;;8.50;99.90;;;;;;5008611;28;20251;-48
2021/01/21 01:22:37;;;;;;;3.90;2.03;;;8.50;99.90;;;;;;5008564;28;20601;-48
2021/01/21 01:25:07;;;;;;;4.50;2.00;;;8.50;99.90;;;;;;5007660;28;20295;-48
2021/01/21 01:27:34;;;;;;;3.50;1.80;;;8.60;99.90;;;;;;5009080;28;20593;-48
2021/01/21 01:30:01;;;;;;;2.77;1.77;;;8.60;99.90;;;;;;5010137;28;20673;-47
2021/01/21 01:32:33;;;;;;;4.10;1.87;;;8.50;99.90;;;;;;5024868;28;20237;-47
2021/01/21 01:35:02;;;;;;;4.97;2.73;;;8.50;99.90;;;;;;5009060;28;20230;-47
2021/01/21 01:37:29;;;;;;;3.17;1.97;;;8.50;99.90;;;;;;5019845;28;20236;-47
2021/01/21 01:40:02;;;;;;;7.40;2.33;;;8.40;99.90;;;;;;5027368;28;20316;-47
2021/01/21 01:42:37;;;;;;;2.93;1.70;;;8.50;99.90;;;;;;5024768;28;20444;-47
2021/01/21 01:45:09;;;;;;;3.63;2.10;;;8.50;99.90;;;;;;4993628;28;20288;-48
2021/01/21 01:47:43;;;;;;;3.57;1.93;;;8.50;99.90;;;;;;4988283;28;20237;-47
2021/01/21 01:50:18;;;;;;;3.40;2.03;;;8.50;99.90;;;;;;5004396;28;20296;-47
2021/01/21 01:52:46;;;;;;;4.33;2.03;;;8.60;99.90;;;;;;4989739;28;20265;-47
2021/01/21 01:55:23;;;;;;;4.20;2.00;;;8.50;99.90;;;;;;4987614;28;20784;-47
2021/01/21 01:58:03;;;;;;;3.77;2.00;;;8.50;99.90;;;;;;4989797;28;20240;-47
2021/01/21 02:00:42;;;;;;;3.77;2.00;;;8.50;99.90;;;;;;5000266;28;20238;-47
2021/01/21 02:03:11;;;;;;;5.57;1.83;;;8.40;99.90;;;;;;5015834;28;20345;-47
2021/01/21 02:05:49;;;;;;;2.80;2.00;;;8.40;99.90;;;;;;5006931;28;20314;-47
2021/01/21 02:08:16;;;;;;;3.87;2.03;;;8.40;99.90;;;;;;5018652;28;20260;-47
2021/01/21 02:10:47;;;;;;;3.07;1.80;;;8.30;99.90;;;;;;5023863;28;20237;-47
2021/01/21 02:13:32;;;;;;;3.20;1.93;;;8.30;99.90;;;;;;5022739;28;20251;-47
2021/01/21 02:16:19;;;;;;;3.60;2.10;;;8.30;99.90;;;;;;5023031;28;20237;-47
2021/01/21 02:19:01;;;;;;;3.97;2.00;;;8.30;99.90;;;;;;5007257;28;20240;-47
2021/01/21 02:21:57;;;;;;;4.13;2.07;;;8.40;99.90;;;;;;5008287;28;20628;-47
2021/01/21 02:25:11;;;;;;;4.13;1.80;;;8.40;99.90;;;;;;5022825;28;20291;-48
2021/01/21 02:28:32;;;;;;;2.87;1.77;;;8.50;99.90;;;;;;5006778;28;20605;-47
2021/01/21 02:31:04;;;;;;;2.97;1.77;;;8.60;99.90;;;;;;4987442;28;20804;-47
2021/01/21 02:33:56;;;;;;;4.33;2.00;;;8.60;99.90;;;;;;4988960;28;20229;-47
2021/01/21 02:36:31;;;;;;;2.50;1.80;;;8.60;99.90;;;;;;5002733;28;20422;-47
2021/01/21 02:39:04;;;;;;;4.70;1.83;;;8.60;99.90;;;;;;5003850;28;20240;-48
2021/01/21 02:41:33;;;;;;;3.80;1.90;;;8.60;99.90;;;;;;5006160;28;20245;-47
2021/01/21 02:44:02;;;;;;;5.17;1.97;;;8.60;99.90;;;;;;5006705;28;20232;-47
2021/01/21 02:46:30;;;;;;;5.20;1.97;;;8.60;99.90;;;;;;5006250;28;20244;-47
2021/01/21 02:48:59;;;;;;;5.47;2.07;;;8.60;99.90;;;;;;5006554;28;20304;-47
2021/01/21 02:51:34;;;;;;;3.53;1.70;;;8.60;99.90;;;;;;5006915;28;20701;-47
2021/01/21 02:54:12;;;;;;;4.57;1.93;;;8.60;99.90;;;;;;5007917;28;20237;-47
2021/01/21 02:56:42;;;;;;;3.10;1.50;;;8.70;99.90;;;;;;5022722;28;20233;-47
2021/01/21 02:59:15;;;;;;;3.97;1.90;;;8.60;99.90;;;;;;5023009;28;20241;-47
2021/01/21 03:01:45;;;;;;;3.20;2.10;;;8.70;99.90;;;;;;5004580;28;20328;-47
2021/01/21 03:04:25;;;;;;;2.93;1.77;;;8.70;99.90;;;;;;5019415;28;20239;-47
2021/01/21 03:06:58;;;;;;;2.50;1.70;;;8.70;99.90;;;;;;5027069;28;20307;-47
2021/01/21 03:09:43;;;;;;;5.13;1.73;;;8.70;99.90;;;;;;5022755;28;20695;-47
2021/01/21 03:12:18;;;;;;;5.93;1.80;;;8.70;99.90;;;;;;5004908;28;20236;-47
2021/01/21 03:14:47;;;;;;;4.57;1.93;;;8.70;99.90;;;;;;5013018;28;20221;-47
2021/01/21 03:17:18;;;;;;;4.33;1.63;;;8.70;99.90;;;;;;5007286;28;20321;-48
2021/01/21 03:19:55;;;;;;;3.43;1.80;;;8.70;99.90;;;;;;5009686;28;20270;-47
2021/01/21 03:22:23;;;;;;;4.33;2.07;;;8.70;99.90;;;;;;5010480;28;20249;-47
2021/01/21 03:24:53;;;;;;;4.20;2.07;;;8.70;99.90;;;;;;5009880;28;20728;-47
2021/01/21 03:27:31;;;;;;;3.20;1.63;;;8.70;99.90;;;;;;5009981;28;20240;-47
2021/01/21 03:30:09;;;;;;;1.97;1.40;;;8.80;99.90;;;;;;5011016;28;20608;-47
2021/01/21 03:32:38;;;;;;;2.40;1.40;;;8.80;99.90;;;;;;5010389;28;20728;-47
2021/01/21 03:35:08;;;;;;;3.47;1.80;;;8.80;99.90;;;;;;5009886;28;20228;-48
2021/01/21 03:37:36;;;;;;;4.13;1.60;;;8.90;99.90;;;;;;5011388;28;20305;-47
2021/01/21 03:40:06;;;;;;;3.87;1.90;;;8.80;99.90;;;;;;5013456;28;20225;-47
2021/01/21 03:42:37;;;;;;;2.43;1.60;;;8.80;99.90;;;;;;5003871;28;20331;-47
2021/01/21 03:45:24;;;;;;;4.13;1.70;;;8.80;99.90;;;;;;5025990;28;20265;-47
2021/01/21 03:47:57;;;;;;;2.37;1.77;;;8.80;99.90;;;;;;5010231;28;20240;-47
2021/01/21 03:50:27;;;;;;;3.77;1.87;;;8.80;99.90;;;;;;5026784;28;20241;-47
2021/01/21 03:52:54;;;;;;;4.03;1.80;;;8.80;99.90;;;;;;5012779;28;20272;-47
2021/01/21 03:55:30;;;;;;;5.07;2.00;;;8.80;99.90;;;;;;5025522;28;23154;-47
2021/01/21 03:58:07;;;;;;;3.53;1.90;;;8.70;99.90;;;;;;5009867;28;20240;-48
2021/01/21 04:00:45;;;;;;;3.67;1.70;;;8.70;99.90;;;;;;5011890;28;20235;-47
2021/01/21 04:03:13;;;;;;;4.00;1.40;;;8.70;99.90;;;;;;5039660;28;20596;-47
2021/01/21 04:05:51;;;;;;;3.10;1.60;;;8.80;99.90;;;;;;5024840;28;20229;-47
2021/01/21 04:08:22;;;;;;;5.53;1.87;;;8.80;99.90;;;;;;5026302;28;20252;-47
2021/01/21 04:10:55;;;;;;;3.50;1.80;;;8.80;99.90;;;;;;5026703;28;20236;-47
2021/01/21 04:13:45;;;;;;;3.90;1.60;;;8.90;99.90;;;;;;5011052;28;20308;-47
2021/01/21 04:16:17;;;;;;;2.67;1.53;;;8.80;99.90;;;;;;5025063;28;20308;-47
2021/01/21 04:18:46;;;;;;;3.90;2.00;;;8.90;99.90;;;;;;5016342;28;20232;-47
2021/01/21 04:21:17;;;;;;;3.70;1.97;;;8.80;99.90;;;;;;5009857;28;20311;-48
2021/01/21 04:23:46;;;;;;;4.47;1.90;;;8.90;99.90;;;;;;5025065;28;20323;-47
2021/01/21 04:26:25;;;;;;;4.87;1.80;;;8.90;99.90;;;;;;5008882;28;20228;-48
2021/01/21 04:28:55;;;;;;;3.17;1.67;;;8.90;99.90;;;;;;5008813;28;20237;-48
2021/01/21 04:31:23;;;;;;;4.43;1.70;;;8.90;99.90;;;;;;5009657;28;20256;-47
2021/01/21 04:33:50;;;;;;;3.37;1.63;;;8.90;99.90;;;;;;5010904;28;20244;-49
2021/01/21 04:36:25;;;;;;;3.23;1.60;;;8.90;99.90;;;;;;5007111;28;20236;-47
2021/01/21 04:38:54;;;;;;;2.60;1.43;;;8.90;99.90;;;;;;5026090;28;20243;-47
2021/01/21 04:41:22;;;;;;;2.20;1.30;;;8.90;99.90;;;;;;5008945;28;20229;-47
2021/01/21 04:44:15;;;;;;;5.77;1.80;;;8.80;99.90;;;;;;5009885;28;20233;-47
2021/01/21 04:47:17;;;;;;;2.60;1.37;;;8.80;99.90;;;;;;5008514;28;20241;-47
2021/01/21 04:50:05;;;;;;;5.83;1.60;;;8.80;99.90;;;;;;5010784;28;20244;-47
2021/01/21 04:52:41;;;;;;;4.00;1.60;;;8.80;99.90;;;;;;5009407;28;20282;-47
2021/01/21 04:55:15;;;;;;;3.97;1.70;;;8.80;99.90;;;;;;5023087;28;20229;-47
2021/01/21 04:58:11;;;;;;;4.57;1.70;;;8.90;99.90;;;;;;5007135;28;20228;-47
2021/01/21 05:00:41;;;;;;;2.43;1.50;;;8.80;99.90;;;;;;5036314;28;20228;-47
2021/01/21 05:03:09;;;;;;;3.17;1.63;;;8.80;99.90;;;;;;5016476;28;20428;-48
2021/01/21 05:05:57;;;;;;;3.63;1.70;;;8.80;99.90;;;;;;4978524;28;20715;-47
2021/01/21 05:08:26;;;;;;;2.80;1.50;;;8.80;99.90;;;;;;5010860;28;20229;-47
2021/01/21 05:11:16;;;;;;;4.77;1.70;;;8.70;99.90;;;;;;5008796;28;20244;-47
2021/01/21 05:14:09;;;;;;;3.77;1.80;;;8.70;99.90;;;;;;5008671;28;20230;-47
2021/01/21 05:16:56;;;;;;;3.07;1.50;;;8.70;99.90;;;;;;5009473;28;20243;-47
2021/01/21 05:19:46;;;;;;;2.37;1.50;;;8.70;99.90;;;;;;5009965;28;20235;-47
2021/01/21 05:22:34;;;;;;;3.40;1.80;;;8.70;99.90;;;;;;5010113;28;20287;-48
2021/01/21 05:25:21;;;;;;;3.80;1.60;;;8.70;99.90;;;;;;5008878;28;20597;-47
2021/01/21 05:27:58;;;;;;;2.23;1.50;;;8.70;99.90;;;;;;5015548;28;20241;-47
2021/01/21 05:30:49;;;;;;;2.57;1.43;;;8.70;99.90;;;;;;4988957;28;20233;-47
2021/01/21 05:33:22;;;;;;;3.97;1.60;;;8.70;99.90;;;;;;5003018;28;20233;-47
2021/01/21 05:35:58;;;;;;;2.00;1.40;;;8.80;99.90;;;;;;5007326;28;20228;-47
2021/01/21 05:38:31;;;;;;;3.27;1.53;;;8.70;99.90;;;;;;5008585;28;20245;-47
2021/01/21 05:41:20;;;;;;;3.93;2.00;;;8.80;99.90;;;;;;5009738;28;20240;-47
2021/01/21 05:44:11;;;;;;;3.30;1.60;;;8.80;99.90;;;;;;5008539;28;20618;-47
2021/01/21 05:46:56;;;;;;;2.57;1.50;;;8.90;99.90;;;;;;5022242;28;20337;-47
2021/01/21 05:49:26;;;;;;;2.57;1.57;;;8.90;99.90;;;;;;5005893;28;20233;-48
2021/01/21 05:52:00;;;;;;;2.80;1.60;;;9.00;99.90;;;;;;5004790;28;20232;-47
2021/01/21 05:54:31;;;;;;;2.43;1.57;;;9.00;99.90;;;;;;5029562;28;20721;-47
2021/01/21 05:57:09;;;;;;;2.90;1.90;;;9.00;99.90;;;;;;5005207;28;20240;-47
2021/01/21 05:59:36;;;;;;;2.73;1.50;;;9.00;99.90;;;;;;5006597;28;20341;-47
2021/01/21 06:02:16;;;;;;;3.47;1.77;;;9.00;99.90;;;;;;5015616;28;20257;-47
2021/01/21 06:04:51;;;;;;;4.03;1.40;;;9.00;99.90;;;;;;5034344;28;20717;-47
2021/01/21 06:07:22;;;;;;;2.97;1.70;;;9.00;99.90;;;;;;5008619;28;20312;-47
2021/01/21 06:09:50;;;;;;;4.40;1.60;;;9.00;99.90;;;;;;5009109;28;20324;-48
2021/01/21 06:12:18;;;;;;;4.57;1.80;;;9.10;99.90;;;;;;5008362;28;20394;-47
2021/01/21 06:14:47;;;;;;;4.40;1.50;;;9.10;99.90;;;;;;5008231;28;20237;-47
2021/01/21 06:17:15;;;;;;;3.17;1.60;;;9.20;99.90;;;;;;5007608;28;20233;-47
2021/01/21 06:20:03;;;;;;;2.17;1.23;;;9.20;99.90;;;;;;5007081;28;20806;-47
2021/01/21 06:22:34;;;;;;;4.97;1.50;;;9.20;99.90;;;;;;5022967;28;20932;-47
2021/01/21 06:25:11;;;;;;;4.10;1.60;;;9.20;99.90;;;;;;5018070;28;20522;-47
2021/01/21 06:27:42;;;;;;;3.53;1.50;;;9.20;99.90;;;;;;5002245;28;20248;-47
2021/01/21 06:30:14;;;;;;;3.50;1.50;;;9.30;99.90;;;;;;5000001;28;20265;-47
2021/01/21 06:32:50;;;;;;;2.47;1.57;;;9.30;99.90;;;;;;4995539;28;20325;-49
2021/01/21 06:35:21;;;;;;;3.83;1.50;;;9.30;99.90;;;;;;5007418;28;20238;-47
2021/01/21 06:37:52;;;;;;;2.50;1.30;;;9.20;99.90;;;;;;5002646;28;20295;-48
2021/01/21 06:40:21;;;;;;;4.93;1.37;;;9.30;99.90;;;;;;4987837;28;20756;-47
2021/01/21 06:43:03;;;;;;;3.27;1.40;;;9.40;99.90;;;;;;4994410;28;20229;-47
2021/01/21 06:45:32;;;;;;;2.30;1.30;;;9.40;99.90;;;;;;5005291;28;20795;-48
2021/01/21 06:47:59;;;;;;;4.53;2.00;;;9.40;99.90;;;;;;5006047;28;20229;-47
2021/01/21 06:50:30;;;;;;;5.87;2.10;;;9.50;99.90;;;;;;5006946;28;20287;-47
2021/01/21 06:53:00;;;;;;;4.47;1.87;;;9.50;99.90;;;;;;5000736;28;20245;-48
2021/01/21 06:55:29;;;;;;;2.80;1.50;;;9.50;99.90;;;;;;5020249;28;20225;-48
2021/01/21 06:57:57;;;;;;;2.30;1.40;;;9.50;99.90;;;;;;5013177;28;20230;-48
2021/01/21 07:00:43;;;;;;;2.50;1.37;;;9.40;99.90;;;;;;5004478;28;20316;-47
2021/01/21 07:03:30;;;;;;;3.50;1.30;;;9.40;99.90;;;;;;4992195;28;20233;-47
2021/01/21 07:06:03;;;;;;;2.87;1.20;;;9.50;99.90;;;;;;4988064;28;20230;-47
2021/01/21 07:08:30;;;;;;;3.43;1.37;;;9.50;99.90;;;;;;4996889;28;20259;-47
2021/01/21 07:10:59;;;;;;;3.03;1.27;;;9.50;99.90;;;;;;5017266;28;20229;-47
2021/01/21 07:13:30;;;;;;;2.30;1.30;;;9.50;99.90;;;;;;5004121;28;20434;-49
2021/01/21 07:16:01;;;;;;;3.40;1.40;;;9.60;99.90;;;;;;4987964;28;20237;-47
2021/01/21 07:18:32;;;;;;;4.00;1.50;;;9.70;99.90;;;;;;4993378;28;20239;-47
2021/01/21 07:21:16;;;;;;;3.80;1.70;;;9.70;99.90;;;;;;5006539;28;20624;-47
2021/01/21 07:23:47;;;;;;;2.67;1.87;;;9.60;99.90;;;;;;4992341;28;20238;-47
2021/01/21 07:26:30;;;;;;;5.37;0.80;;;9.60;99.90;;;;;;4987817;28;20698;-47
2021/01/21 07:29:12;;;;;;;1.40;0.63;;;9.00;99.90;;;;;;5001606;28;21048;-47
2021/01/21 07:32:08;;;;;;;1.03;0.47;;;8.40;99.90;;;;;;5024492;28;20778;-47
2021/01/21 07:34:46;;;;;;;1.03;0.60;;;8.10;99.90;;;;;;5002877;28;20288;-48
2021/01/21 07:37:22;;;;;;;1.63;0.50;;;7.90;99.90;;;;;;5000617;28;20312;-47
2021/01/21 07:40:06;;;;;;;0.63;0.40;;;7.80;99.90;;;;;;4988622;28;20287;-47
2021/01/21 07:42:51;;;;;;;0.63;0.30;;;7.70;99.90;;;;;;4999632;28;20313;-47
2021/01/21 07:45:27;;;;;;;1.27;0.50;;;7.70;99.90;;;;;;5004810;28;20237;-47
2021/01/21 07:47:57;;;;;;;1.03;0.43;;;7.70;99.90;;;;;;5002131;28;20225;-47
2021/01/21 07:50:36;;;;;;;1.90;0.50;;;7.60;99.90;;;;;;5003365;28;20682;-47
2021/01/21 07:53:07;;;;;;;0.70;0.30;;;7.60;99.90;;;;;;5006385;28;20718;-47
2021/01/21 07:55:36;;;;;;;0.33;0.33;;;7.60;99.90;;;;;;5014937;28;20330;-47
2021/01/21 07:58:22;;;;;;;2.63;0.50;;;7.60;99.90;;;;;;5008638;28;20259;-47
2021/01/21 08:00:52;;;;;;;1.30;0.30;;;7.60;99.90;;;;;;5009907;28;20232;-47
2021/01/21 08:03:33;;;;;;;1.50;0.40;;;7.60;99.90;;;;;;5009338;28;20662;-47
2021/01/21 08:06:11;;;;;;;3.07;0.60;;;7.60;99.90;;;;;;5009389;28;20291;-48
2021/01/21 08:08:40;;;;;;;4.37;0.70;;;7.60;99.90;;;;;;5010569;28;20320;-47
2021/01/21 08:11:09;;;;;;;4.17;0.90;;;7.50;99.90;;;;;;5011730;28;20237;-47
2021/01/21 08:13:38;;;;;;;2.27;0.70;;;7.50;99.90;;;;;;5011458;28;20593;-47
2021/01/21 08:16:06;;;;;;;2.67;0.60;;;7.50;99.90;;;;;;5010342;28;20248;-49
2021/01/21 08:18:35;;;;;;;4.87;0.63;;;7.40;99.90;;;;;;5010901;28;20248;-47
2021/01/21 08:21:25;;;;;;;4.20;0.90;;;7.40;99.90;;;;;;4993582;28;20288;-48
2021/01/21 08:23:57;;;;;;;3.73;0.90;;;7.40;99.90;;;;;;4991095;28;20238;-47
2021/01/21 08:26:27;;;;;;;3.50;0.97;;;7.30;99.90;;;;;;4990655;28;20238;-48
2021/01/21 08:28:55;;;;;;;2.93;1.00;;;7.30;99.90;;;;;;4991745;28;20234;-47
2021/01/21 08:31:36;;;;;;;3.17;1.23;;;7.20;99.90;;;;;;4992788;28;20651;-47
2021/01/21 08:34:07;;;;;;;4.87;1.40;;;7.30;99.90;;;;;;4991579;28;20253;-48
2021/01/21 08:36:35;;;;;;;2.03;1.20;;;7.20;99.90;;;;;;4990634;28;20234;-47
2021/01/21 08:39:05;;;;;;;6.43;1.43;;;7.20;99.90;;;;;;4991330;28;20632;-47
2021/01/21 08:41:33;;;;;;;4.10;1.10;;;7.20;99.90;;;;;;4992383;28;20242;-47
2021/01/21 08:44:02;;;;;;;7.13;1.53;;;7.30;99.90;;;;;;5011076;28;20244;-48
2021/01/21 08:46:30;;;;;;;6.03;1.40;;;7.30;99.90;;;;;;5009906;28;20229;-47
2021/01/21 08:49:09;;;;;;;4.63;1.40;;;7.20;99.90;;;;;;5013684;28;20231;-47
2021/01/21 08:51:41;;;;;;;7.77;1.90;;;7.20;99.90;;;;;;5026279;28;20236;-48
2021/01/21 08:54:17;;;;;;;3.83;1.13;;;7.30;99.90;;;;;;5021018;28;20256;-47
2021/01/21 08:57:07;;;;;;;3.00;1.50;;;7.20;99.90;;;;;;5006660;28;20685;-47
2021/01/21 08:59:35;;;;;;;5.13;1.77;;;7.30;99.90;;;;;;5004741;28;20300;-47
2021/01/21 09:02:04;;;;;;;2.47;1.57;;;7.30;99.90;;;;;;5007049;28;20313;-48
2021/01/21 09:04:38;;;;;;;4.13;1.30;;;7.30;99.90;;;;;;5012097;28;20643;-48
2021/01/21 09:07:08;;;;;;;6.47;1.60;;;7.30;99.90;;;;;;5006023;28;20249;-48
2021/01/21 09:09:38;;;;;;;5.13;2.00;;;7.40;99.90;;;;;;4997396;28;20360;-47
2021/01/21 09:12:17;;;;;;;5.90;1.87;;;7.50;99.90;;;;;;5000547;28;20712;-47
2021/01/21 09:15:00;;;;;;;7.30;1.70;;;7.40;99.90;;;;;;4996825;28;20259;-48
2021/01/21 09:17:28;;;;;;;4.60;1.40;;;7.50;99.90;;;;;;4997272;28;20233;-48
2021/01/21 09:19:57;;;;;;;4.97;1.37;;;7.50;99.90;;;;;;4997788;28;20233;-48
2021/01/21 09:22:27;;;;;;;2.70;1.43;;;7.50;99.90;;;;;;4995756;28;20234;-48
2021/01/21 09:24:58;;;;;;;3.13;1.40;;;7.60;99.90;;;;;;4996063;28;20497;-49
2021/01/21 09:27:30;;;;;;;4.10;1.53;;;7.60;99.90;;;;;;4997208;28;20763;-48
2021/01/21 09:30:25;;;;;;;4.00;1.40;;;7.60;99.90;;;;;;4990661;28;20329;-48
2021/01/21 09:32:54;;;;;;;4.30;1.47;;;7.60;99.90;;;;;;4995520;28;20241;-47
2021/01/21 09:35:23;;;;;;;3.70;1.37;;;7.70;99.90;;;;;;4995246;28;20232;-48
2021/01/21 09:37:53;;;;;;;3.50;1.20;;;7.60;99.90;;;;;;4996589;28;20596;-47
2021/01/21 09:40:22;;;;;;;4.03;1.43;;;7.70;99.90;;;;;;4998371;28;20324;-47
2021/01/21 09:42:51;;;;;;;5.77;1.90;;;7.70;99.90;;;;;;5005861;28;20315;-47
2021/01/21 09:45:19;;;;;;;3.87;1.67;;;7.80;99.90;;;;;;5004742;28;20316;-48
2021/01/21 09:47:46;;;;;;;3.97;1.30;;;7.90;99.90;;;;;;5002487;28;20631;-47
2021/01/21 09:50:15;;;;;;;4.47;1.60;;;8.00;99.90;;;;;;5006534;28;20244;-48
2021/01/21 09:52:42;;;;;;;5.97;1.60;;;7.90;99.90;;;;;;5012754;28;20237;-47
2021/01/21 09:55:11;;;;;;;4.63;1.20;;;8.00;99.90;;;;;;5005681;28;20233;-47
2021/01/21 09:57:39;;;;;;;4.40;1.67;;;8.10;99.90;;;;;;5004241;28;20253;-47
2021/01/21 10:00:10;;;;;;;4.03;1.60;;;8.10;99.90;;;;;;5005801;28;20763;-47
2021/01/21 10:02:41;;;;;;;4.43;1.60;;;8.10;99.90;;;;;;5006349;28;20241;-47
2021/01/21 10:05:11;;;;;;;7.73;1.90;;;8.20;99.90;;;;;;5005787;28;20299;-47
2021/01/21 10:07:39;;;;;;;3.73;1.60;;;8.30;99.90;;;;;;5005950;28;20280;-47
2021/01/21 10:10:07;;;;;;;7.13;1.90;;;8.30;99.90;;;;;;5006063;28;20268;-47
2021/01/21 10:12:34;;;;;;;3.80;1.30;;;8.20;99.90;;;;;;5006142;28;20315;-48
2021/01/21 10:15:02;;;;;;;5.57;1.70;;;8.30;99.90;;;;;;5005399;28;20233;-47
2021/01/21 10:17:30;;;;;;;5.07;1.50;;;8.40;99.90;;;;;;5006329;28;20664;-47
2021/01/21 10:19:57;;;;;;;2.07;1.10;;;8.50;99.90;;;;;;5005982;28;20233;-48
2021/01/21 10:22:25;;;;;;;4.27;1.60;;;8.50;99.90;;;;;;5005442;28;20344;-47
2021/01/21 10:24:53;;;;;;;3.63;1.50;;;8.40;99.90;;;;;;5005354;28;20703;-48
2021/01/21 10:27:26;;;;;;;4.50;1.27;;;8.40;99.90;;;;;;5005313;28;20241;-47
2021/01/21 10:29:54;;;;;;;4.63;1.40;;;8.40;99.90;;;;;;5005908;28;20251;-48
2021/01/21 10:32:31;;;;;;;2.93;1.10;;;8.40;99.90;;;;;;4986731;28;20296;-47
2021/01/21 10:34:59;;;;;;;5.27;1.50;;;8.30;99.90;;;;;;4994520;28;20239;-47
2021/01/21 10:37:27;;;;;;;5.90;1.37;;;8.30;99.90;;;;;;5005512;28;20229;-47
2021/01/21 10:39:57;;;;;;;3.23;1.40;;;8.40;99.90;;;;;;5004576;28;20229;-48
2021/01/21 10:42:24;;;;;;;5.80;1.47;;;8.40;99.90;;;;;;5003709;28;20288;-47
2021/01/21 10:44:51;;;;;;;4.43;1.23;;;8.40;99.90;;;;;;5013575;28;20227;-47
2021/01/21 10:47:19;;;;;;;4.07;1.40;;;8.40;99.90;;;;;;5025106;28;20236;-47
2021/01/21 10:49:46;;;;;;;6.20;1.47;;;8.50;99.90;;;;;;5013020;28;20240;-49
2021/01/21 10:52:13;;;;;;;4.90;1.30;;;8.50;99.90;;;;;;5006002;28;20303;-48
2021/01/21 10:54:41;;;;;;;3.70;1.57;;;8.60;99.90;;;;;;5005771;28;20245;-48
2021/01/21 10:57:09;;;;;;;6.03;1.50;;;8.60;99.90;;;;;;5005505;28;20259;-47
2021/01/21 10:59:36;;;;;;;4.30;1.57;;;8.60;99.90;;;;;;5005678;28;20307;-48
2021/01/21 11:02:04;;;;;;;8.20;1.53;;;8.50;99.90;;;;;;5005468;28;20240;-47
2021/01/21 11:04:32;;;;;;;4.90;1.43;;;8.70;99.90;;;;;;5004950;28;20241;-47
2021/01/21 11:06:59;;;;;;;5.13;1.70;;;8.80;99.90;;;;;;5003976;28;20321;-47
2021/01/21 11:09:35;;;;;;;5.83;1.90;;;8.80;99.90;;;;;;5003004;28;20245;-49
2021/01/21 11:12:04;;;;;;;4.53;1.40;;;8.80;99.90;;;;;;4994901;28;20240;-48
2021/01/21 11:14:35;;;;;;;5.60;1.67;;;9.00;99.90;;;;;;4992629;28;20251;-47
2021/01/21 11:17:03;;;;;;;5.00;1.87;;;9.10;99.90;;;;;;4993309;28;20244;-47
2021/01/21 11:19:30;;;;;;;4.43;1.80;;;9.00;99.90;;;;;;4991795;28;20259;-47
2021/01/21 11:22:01;;;;;;;4.53;1.60;;;9.10;99.90;;;;;;4994131;28;20253;-48
2021/01/21 11:24:28;;;;;;;3.43;1.30;;;9.20;99.90;;;;;;4993916;28;20237;-47
2021/01/21 11:26:58;;;;;;;3.33;1.33;;;9.10;99.90;;;;;;4993690;28;20245;-47
2021/01/21 11:29:26;;;;;;;5.20;1.73;;;9.20;99.90;;;;;;4991952;28;20346;-47
2021/01/21 11:31:54;;;;;;;4.03;1.40;;;9.20;99.90;;;;;;4993925;28;20563;-47
2021/01/21 11:34:22;;;;;;;5.33;1.70;;;9.20;99.90;;;;;;4997514;28;20244;-48
2021/01/21 11:36:50;;;;;;;4.30;1.27;;;9.30;99.90;;;;;;4995458;28;20236;-47
2021/01/21 11:39:22;;;;;;;4.87;1.50;;;9.20;99.90;;;;;;4995618;28;20485;-47
2021/01/21 11:41:49;;;;;;;7.50;2.00;;;9.30;99.90;;;;;;4995145;28;20229;-49
2021/01/21 11:44:17;;;;;;;6.47;1.43;;;9.40;99.90;;;;;;5003145;28;20236;-48
2021/01/21 11:46:44;;;;;;;5.07;1.80;;;9.40;99.90;;;;;;5004613;28;20249;-48
2021/01/21 11:49:13;;;;;;;4.07;1.30;;;9.50;99.90;;;;;;4997888;28;20238;-47
2021/01/21 11:51:40;;;;;;;2.40;1.17;;;9.50;99.90;;;;;;4988215;28;20714;-48
2021/01/21 11:54:07;;;;;;;4.07;1.27;;;9.50;99.90;;;;;;4995530;28;20288;-48
2021/01/21 11:56:35;;;;;;;4.97;1.60;;;9.40;99.90;;;;;;5005403;28;20256;-48
2021/01/21 11:59:02;;;;;;;3.60;1.00;;;9.40;99.90;;;;;;5006744;28;20430;-48
2021/01/21 12:01:30;;;;;;;5.57;1.30;;;9.30;99.90;;;;;;5008246;28;20324;-48
2021/01/21 12:03:58;;;;;;;4.07;1.60;;;9.20;99.90;;;;;;5008256;28;20283;-47
2021/01/21 12:06:27;;;;;;;3.23;1.17;;;9.30;99.90;;;;;;5008244;28;20245;-47
2021/01/21 12:08:54;;;;;;;4.70;1.30;;;9.40;99.90;;;;;;5008504;28;20257;-49
2021/01/21 12:11:21;;;;;;;3.67;1.23;;;9.30;99.90;;;;;;5008673;28;20244;-47
2021/01/21 12:13:49;;;;;;;4.10;1.20;;;9.20;99.90;;;;;;5008361;28;20449;-47
2021/01/21 12:16:16;;;;;;;5.00;1.43;;;9.20;99.90;;;;;;5008276;28;20287;-48
2021/01/21 12:18:43;;;;;;;5.50;1.40;;;9.10;99.90;;;;;;5008477;28;20240;-48
2021/01/21 12:21:11;;;;;;;4.63;1.50;;;9.10;99.90;;;;;;5008983;28;20325;-48
2021/01/21 12:23:40;;;;;;;4.03;1.70;;;9.00;99.90;;;;;;5008184;28;20237;-47
2021/01/21 12:26:08;;;;;;;2.60;1.30;;;9.00;99.90;;;;;;5008001;28;20248;-48
2021/01/21 12:28:36;;;;;;;5.97;1.50;;;9.00;99.90;;;;;;5008341;28;20758;-47
2021/01/21 12:31:04;;;;;;;5.60;1.40;;;9.10;99.90;;;;;;5008506;28;20717;-49
2021/01/21 12:33:33;;;;;;;5.27;1.40;;;9.10;99.90;;;;;;5008029;28;20239;-48
2021/01/21 12:36:01;;;;;;;7.73;1.43;;;9.10;99.90;;;;;;5002835;28;20597;-47
2021/01/21 12:38:29;;;;;;;3.83;1.30;;;9.00;99.90;;;;;;5003518;28;20260;-47
2021/01/21 12:40:57;;;;;;;4.57;1.30;;;8.90;99.90;;;;;;5011056;28;20233;-47
2021/01/21 12:43:25;;;;;;;4.97;1.50;;;8.90;99.90;;;;;;5006124;28;20269;-50
2021/01/21 12:45:52;;;;;;;6.73;1.43;;;8.80;99.90;;;;;;4995466;28;20236;-50
2021/01/21 12:48:20;;;;;;;3.70;1.27;;;8.70;99.90;;;;;;5001506;28;20524;-47
2021/01/21 12:50:48;;;;;;;4.87;1.37;;;8.80;99.90;;;;;;5005050;28;20311;-47
2021/01/21 12:53:16;;;;;;;5.77;1.90;;;8.80;99.90;;;;;;5005493;28;20307;-51
2021/01/21 12:55:43;;;;;;;6.03;1.50;;;8.70;99.90;;;;;;5007081;28;20319;-50
2021/01/21 12:58:11;;;;;;;4.37;1.43;;;8.80;99.90;;;;;;5008281;28;20244;-50
2021/01/21 13:00:39;;;;;;;9.27;1.53;;;8.80;99.90;;;;;;5005439;28;20689;-50
2021/01/21 13:03:06;;;;;;;5.57;1.40;;;8.90;99.90;;;;;;4998029;28;20234;-50
2021/01/21 13:05:38;;;;;;;4.13;1.33;;;8.80;99.90;;;;;;4987283;28;20237;-50
2021/01/21 13:08:06;;;;;;;6.90;1.57;;;8.90;99.90;;;;;;4986665;28;20275;-50
2021/01/21 13:10:33;;;;;;;6.70;1.50;;;8.80;99.90;;;;;;4986799;28;20280;-49
2021/01/21 13:13:00;;;;;;;4.20;1.50;;;8.70;99.90;;;;;;4994188;28;20255;-49
2021/01/21 13:15:28;;;;;;;6.80;1.53;;;8.80;99.90;;;;;;5005398;28;20712;-50
2021/01/21 13:17:56;;;;;;;5.43;1.30;;;8.80;99.90;;;;;;5005830;28;20240;-49
2021/01/21 13:20:23;;;;;;;6.57;1.50;;;8.80;99.90;;;;;;4997346;28;20238;-49
2021/01/21 13:22:51;;;;;;;4.57;1.40;;;8.70;99.90;;;;;;4996166;28;20247;-49
2021/01/21 13:25:18;;;;;;;3.53;1.30;;;8.80;99.90;;;;;;4990656;28;20253;-50